Time;durP1;ratioP1;P1;durP2;ratioP2;P2;SDS_P1;SDS_P2;PMS_P1;PMS_P2;Temp;Humidity;BMP_temperature;BMP_pressure;BME280_temperature;BME280_humidity;BME280_pressure;Samples;Min_cycle;Max_cycle;Signal;HPM_P1;HPM_P2
2024/01/29 00:02:10;;;;;;;42.30;24.60;;;;;;;-0.22;93.95;101835.96;217623;1260;140871;-69
2024/01/29 00:07:15;;;;;;;37.30;18.80;;;;;;;-0.17;94.20;101839.07;216463;1264;246982;-68
2024/01/29 00:12:23;;;;;;;37.80;18.10;;;;;;;-0.16;94.16;101831.52;216302;1260;141164;-69
2024/01/29 00:17:28;;;;;;;38.90;19.90;;;;;;;-0.14;94.37;101835.86;216528;1263;141179;-66
2024/01/29 00:22:32;;;;;;;37.00;19.70;;;;;;;-0.11;94.71;101838.09;217004;1261;141424;-66
2024/01/29 00:27:37;;;;;;;34.60;18.10;;;;;;;-0.12;94.41;101839.06;218722;1260;140265;-66
2024/01/29 00:32:42;;;;;;;34.40;18.50;;;;;;;-0.12;94.27;101834.33;218121;1261;141190;-69
2024/01/29 00:37:46;;;;;;;29.50;15.00;;;;;;;-0.10;94.49;101831.41;216829;1263;141942;-65
2024/01/29 00:42:49;;;;;;;36.70;19.40;;;;;;;-0.10;94.70;101831.20;216640;1261;140348;-66
2024/01/29 00:47:55;;;;;;;37.70;16.70;;;;;;;-0.10;94.39;101832.78;216566;1260;140330;-65
2024/01/29 00:52:59;;;;;;;28.40;17.40;;;;;;;-0.12;94.55;101831.02;216760;1261;142619;-66
2024/01/29 00:58:03;;;;;;;37.90;20.20;;;;;;;-0.14;94.40;101831.84;216636;1263;141938;-65
2024/01/29 01:03:09;;;;;;;37.70;19.80;;;;;;;-0.16;94.81;101839.50;217830;1263;141058;-66
2024/01/29 01:08:12;;;;;;;34.00;19.90;;;;;;;-0.16;94.66;101842.15;216433;1263;140541;-67
2024/01/29 01:13:17;;;;;;;36.30;18.40;;;;;;;-0.19;94.67;101841.30;217762;1262;142462;-68
2024/01/29 01:18:23;;;;;;;36.60;19.00;;;;;;;-0.19;94.85;101842.91;216321;1261;140508;-67
2024/01/29 01:23:28;;;;;;;28.50;18.30;;;;;;;-0.19;94.66;101842.91;218234;1260;140739;-67
2024/01/29 01:28:36;;;;;;;25.20;15.20;;;;;;;-0.20;94.58;101841.58;217449;1260;140745;-65
2024/01/29 01:33:40;;;;;;;36.50;17.90;;;;;;;-0.24;94.52;101834.69;217814;1260;141125;-69
2024/01/29 01:38:45;;;;;;;27.50;16.40;;;;;;;-0.25;94.52;101842.14;217865;1261;141062;-70
2024/01/29 01:43:49;;;;;;;28.60;14.40;;;;;;;-0.26;94.62;101841.52;218077;1260;141154;-67
2024/01/29 01:48:55;;;;;;;22.80;15.30;;;;;;;-0.31;94.33;101832.95;218420;1259;141527;-67
2024/01/29 01:54:02;;;;;;;31.50;19.50;;;;;;;-0.38;94.31;101834.18;219586;1260;142745;-67
2024/01/29 01:59:07;;;;;;;36.70;19.00;;;;;;;-0.41;94.22;101835.27;219782;1259;140572;-68
2024/01/29 02:04:11;;;;;;;31.30;18.90;;;;;;;-0.40;94.39;101831.88;219732;1259;141837;-68
2024/01/29 02:09:15;;;;;;;36.80;18.30;;;;;;;-0.39;94.37;101840.20;217923;1259;141134;-67
2024/01/29 02:14:19;;;;;;;25.90;15.10;;;;;;;-0.40;94.21;101842.48;217117;1260;140412;-67
2024/01/29 02:19:23;;;;;;;22.50;15.70;;;;;;;-0.43;94.12;101841.16;217623;1262;140251;-66
2024/01/29 02:24:31;;;;;;;27.00;15.30;;;;;;;-0.52;93.84;101837.84;216596;1260;142280;-66
2024/01/29 02:29:36;;;;;;;36.80;19.10;;;;;;;-0.62;93.79;101843.13;217885;1259;140790;-67
2024/01/29 02:34:41;;;;;;;38.80;18.30;;;;;;;-0.73;93.74;101832.72;216952;1263;140840;-67
2024/01/29 02:39:50;;;;;;;31.40;17.50;;;;;;;-0.85;93.70;101822.73;218036;1259;141247;-66
2024/01/29 02:44:54;;;;;;;27.30;18.60;;;;;;;-0.95;93.58;101820.69;217050;1260;140780;-67
2024/01/29 02:50:03;;;;;;;31.90;18.50;;;;;;;-1.02;93.89;101820.52;216791;1260;142235;-65
2024/01/29 02:55:08;;;;;;;39.70;19.70;;;;;;;-1.03;94.26;101820.58;217383;1259;142640;-65
2024/01/29 03:00:12;;;;;;;24.60;13.90;;;;;;;-1.02;94.36;101814.55;217181;1259;141678;-65
2024/01/29 03:05:16;;;;;;;30.60;17.50;;;;;;;-1.06;94.17;101802.60;217072;1259;143229;-65
2024/01/29 03:10:21;;;;;;;33.60;17.20;;;;;;;-1.09;94.27;101793.56;216946;1259;142177;-67
2024/01/29 03:15:26;;;;;;;24.00;14.50;;;;;;;-1.14;94.09;101787.98;217226;1259;141355;-68
2024/01/29 03:20:31;;;;;;;38.70;20.70;;;;;;;-1.14;94.48;101785.36;216872;1259;140636;-67
2024/01/29 03:25:36;;;;;;;30.00;15.60;;;;;;;-1.12;94.66;101783.55;218084;1260;142028;-67
2024/01/29 03:30:42;;;;;;;33.40;17.30;;;;;;;-1.10;95.29;101783.88;216542;1260;140638;-67
2024/01/29 03:35:46;;;;;;;39.40;23.90;;;;;;;-1.08;95.03;101774.84;216740;1263;140447;-66
2024/01/29 03:40:51;;;;;;;33.10;19.10;;;;;;;-1.06;95.30;101760.39;216649;1259;140623;-67
2024/01/29 03:45:55;;;;;;;32.30;17.20;;;;;;;-1.02;95.28;101759.61;219639;1259;141385;-67
2024/01/29 03:50:59;;;;;;;35.80;20.80;;;;;;;-0.96;95.62;101760.23;219546;1259;141184;-67
2024/01/29 03:56:05;;;;;;;27.20;15.80;;;;;;;-0.88;95.55;101768.89;217976;1259;140494;-67
2024/01/29 04:01:09;;;;;;;26.80;16.10;;;;;;;-0.81;95.55;101769.75;217108;1259;140220;-66
2024/01/29 04:06:14;;;;;;;32.90;16.80;;;;;;;-0.77;95.56;101770.13;217420;1259;142265;-67
2024/01/29 04:11:19;;;;;;;23.60;12.40;;;;;;;-0.74;95.44;101773.58;216942;1259;140196;-69
2024/01/29 04:16:24;;;;;;;27.50;16.20;;;;;;;-0.72;95.61;101770.83;216722;1259;140111;-67
2024/01/29 04:21:29;;;;;;;32.80;18.20;;;;;;;-0.71;95.47;101764.66;217322;1259;140959;-70
2024/01/29 04:26:34;;;;;;;36.30;21.50;;;;;;;-0.71;95.59;101762.02;216280;1259;140390;-69
2024/01/29 04:31:39;;;;;;;26.10;15.60;;;;;;;-0.71;95.37;101753.10;216820;1263;140480;-67
2024/01/29 04:36:48;;;;;;;30.50;17.90;;;;;;;-0.73;95.14;101758.83;216451;1259;140309;-67
2024/01/29 04:41:52;;;;;;;33.60;20.80;;;;;;;-0.75;95.37;101750.98;216654;1263;140453;-67
2024/01/29 04:46:58;;;;;;;24.50;15.30;;;;;;;-0.77;95.30;101753.25;216609;1262;142294;-68
2024/01/29 04:52:03;;;;;;;26.50;15.90;;;;;;;-0.78;95.52;101745.44;217003;1259;140222;-67
2024/01/29 04:57:07;;;;;;;33.60;17.10;;;;;;;-0.79;95.71;101744.27;216537;1259;256744;-67
2024/01/29 05:02:11;;;;;;;31.00;15.70;;;;;;;-0.81;95.42;101739.38;216720;1263;140772;-67
2024/01/29 05:07:16;;;;;;;32.90;14.60;;;;;;;-0.80;95.72;101738.45;217313;1262;140203;-67
2024/01/29 05:12:21;;;;;;;27.70;16.90;;;;;;;-0.80;95.62;101740.69;217309;1263;141137;-67
2024/01/29 05:17:25;;;;;;;29.60;15.90;;;;;;;-0.81;95.24;101736.23;216543;1262;154103;-67
2024/01/29 05:22:30;;;;;;;32.00;17.50;;;;;;;-0.83;95.65;101730.94;217224;1262;140643;-67
2024/01/29 05:27:36;;;;;;;30.30;16.00;;;;;;;-0.85;95.29;101725.71;218267;1259;141453;-67
2024/01/29 05:32:40;;;;;;;23.00;13.50;;;;;;;-0.86;95.63;101713.59;219532;1259;141548;-67
2024/01/29 05:37:45;;;;;;;32.90;18.10;;;;;;;-0.87;95.53;101710.63;219490;1259;140068;-70
2024/01/29 05:42:53;;;;;;;29.00;16.40;;;;;;;-0.84;95.46;101713.23;219478;1259;140913;-70
2024/01/29 05:47:57;;;;;;;29.40;14.80;;;;;;;-0.83;95.24;101705.88;219272;1259;140483;-70
2024/01/29 05:53:01;;;;;;;28.30;16.30;;;;;;;-0.81;95.37;101705.02;218577;1259;141953;-68
2024/01/29 05:58:06;;;;;;;22.80;13.60;;;;;;;-0.80;95.15;101708.75;217358;1259;140165;-68
2024/01/29 06:03:12;;;;;;;23.90;13.60;;;;;;;-0.79;95.34;101710.05;218327;1259;142269;-68
2024/01/29 06:08:18;;;;;;;22.40;14.00;;;;;;;-0.79;95.44;101708.70;218768;1259;141275;-68
2024/01/29 06:13:24;;;;;;;26.60;13.40;;;;;;;-0.77;95.57;101709.45;216909;1259;140570;-68
2024/01/29 06:18:28;;;;;;;27.30;15.80;;;;;;;-0.75;95.88;101708.91;216862;1262;140330;-68
2024/01/29 06:23:33;;;;;;;24.30;14.10;;;;;;;-0.73;95.75;101710.67;217895;1259;140917;-68
2024/01/29 06:28:38;;;;;;;23.60;12.70;;;;;;;-0.73;95.49;101706.52;216783;1259;141367;-66
2024/01/29 06:33:42;;;;;;;25.50;15.50;;;;;;;-0.73;95.87;101697.96;216964;1260;142332;-67
2024/01/29 06:38:46;;;;;;;19.40;13.60;;;;;;;-0.73;95.93;101692.35;217894;1259;140468;-68
2024/01/29 06:43:52;;;;;;;26.10;15.20;;;;;;;-0.72;96.02;101696.43;217343;1259;140629;-67
2024/01/29 06:48:58;;;;;;;20.90;11.00;;;;;;;-0.69;95.53;101693.27;216857;1262;140888;-67
2024/01/29 06:54:03;;;;;;;20.80;11.40;;;;;;;-0.56;95.66;101691.11;217123;1259;140846;-67
2024/01/29 06:59:08;;;;;;;19.70;12.40;;;;;;;-0.32;96.01;101687.66;216875;1260;140661;-67
2024/01/29 07:04:13;;;;;;;20.30;12.90;;;;;;;0.19;96.20;101679.32;217503;1259;141601;-67
2024/01/29 07:09:18;;;;;;;20.10;12.40;;;;;;;0.86;96.05;101676.59;216658;1259;140332;-66
2024/01/29 07:14:22;;;;;;;23.00;13.60;;;;;;;1.49;95.19;101675.94;216753;1259;140198;-67
2024/01/29 07:19:33;;;;;;;17.50;12.00;;;;;;;1.89;94.39;101673.52;216635;1262;140162;-67
2024/01/29 07:24:39;;;;;;;20.50;13.40;;;;;;;2.28;93.85;101676.99;217706;1259;141738;-68
2024/01/29 07:29:44;;;;;;;22.00;13.50;;;;;;;2.49;92.90;101669.67;219500;1259;140746;-70
2024/01/29 07:34:48;;;;;;;25.30;15.00;;;;;;;2.58;92.13;101677.49;217535;1259;224330;-69
2024/01/29 07:39:56;;;;;;;21.60;12.60;;;;;;;2.56;91.45;101683.66;218325;1259;142928;-69
2024/01/29 07:45:01;;;;;;;21.00;12.50;;;;;;;2.49;90.91;101684.97;217397;1259;140389;-69
2024/01/29 07:50:06;;;;;;;16.50;11.50;;;;;;;2.36;90.71;101694.20;218392;1259;140728;-70
2024/01/29 07:55:11;;;;;;;26.80;15.00;;;;;;;2.17;90.48;101686.90;217723;1259;140904;-69
2024/01/29 08:00:21;;;;;;;26.00;13.20;;;;;;;1.93;90.34;101681.81;216878;1260;140064;-68
2024/01/29 08:05:26;;;;;;;24.50;13.80;;;;;;;1.69;90.22;101681.88;216597;1259;139934;-68
2024/01/29 08:10:30;;;;;;;20.70;14.20;;;;;;;1.55;90.67;101686.80;218725;1259;141062;-69
2024/01/29 08:15:35;;;;;;;24.50;13.20;;;;;;;1.52;91.01;101687.27;216471;1259;140578;-69
2024/01/29 08:20:40;;;;;;;21.70;11.70;;;;;;;1.52;91.25;101691.48;217914;1259;142265;-69
2024/01/29 08:26:02;;;;;;;24.80;13.60;;;;;;;1.55;91.38;101693.82;216639;1262;139964;-69
2024/01/29 08:31:08;;;;;;;28.30;13.70;;;;;;;1.58;91.51;101697.36;217554;1259;140414;-69
2024/01/29 08:36:20;;;;;;;21.90;13.30;;;;;;;1.67;91.67;101704.54;217705;1263;142783;-70
2024/01/29 08:41:25;;;;;;;20.50;11.80;;;;;;;1.82;92.14;101710.77;216675;1263;140032;-68
2024/01/29 08:46:32;;;;;;;20.30;12.20;;;;;;;1.94;92.08;101713.40;216890;1262;141080;-69
2024/01/29 08:51:36;;;;;;;16.30;9.60;;;;;;;2.02;91.76;101713.09;217116;1263;140864;-69
2024/01/29 08:56:41;;;;;;;23.20;12.90;;;;;;;2.10;91.63;101708.63;217859;1259;140359;-69
2024/01/29 09:01:45;;;;;;;21.40;12.10;;;;;;;2.22;91.73;101699.82;216711;1259;140831;-69
2024/01/29 09:06:50;;;;;;;28.20;12.10;;;;;;;2.33;91.47;101697.05;216478;1259;140752;-69
2024/01/29 09:11:55;;;;;;;25.20;13.40;;;;;;;2.43;91.32;101702.34;218326;1259;140895;-68
2024/01/29 09:17:00;;;;;;;23.90;14.30;;;;;;;2.52;91.29;101702.58;216691;1263;140874;-68
2024/01/29 09:22:04;;;;;;;23.50;13.00;;;;;;;2.64;91.57;101708.41;216897;1259;140436;-69
2024/01/29 09:27:10;;;;;;;21.00;11.10;;;;;;;2.77;91.43;101702.89;219642;1259;142155;-69
2024/01/29 09:32:14;;;;;;;21.80;12.50;;;;;;;2.93;91.47;101700.04;218930;1259;140985;-72
2024/01/29 09:37:19;;;;;;;19.60;11.70;;;;;;;3.10;91.21;101695.98;216437;1261;139985;-71
2024/01/29 09:42:27;;;;;;;25.60;15.20;;;;;;;3.26;91.00;101694.52;216658;1260;140095;-72
2024/01/29 09:47:37;;;;;;;21.00;12.80;;;;;;;3.46;90.98;101696.23;216384;1262;140271;-71
2024/01/29 09:52:42;;;;;;;17.40;11.60;;;;;;;3.64;90.81;101693.53;216467;1262;140535;-71
2024/01/29 09:57:46;;;;;;;14.80;10.40;;;;;;;3.82;90.57;101694.13;218379;1259;140115;-72
2024/01/29 10:02:53;;;;;;;19.00;12.20;;;;;;;3.97;90.23;101692.64;216583;1262;140646;-72
2024/01/29 10:08:01;;;;;;;21.60;12.30;;;;;;;4.16;89.84;101693.94;216430;1263;140775;-72
2024/01/29 10:13:09;;;;;;;17.20;9.30;;;;;;;4.33;89.86;101692.04;217633;1259;141351;-72
2024/01/29 10:18:15;;;;;;;;;;;;;;;4.50;89.53;101684.30;216240;1263;140219;-72
2024/01/29 10:23:20;;;;;;;14.30;8.70;;;;;;;4.66;89.45;101671.25;216492;1264;126488;-71
2024/01/29 10:28:26;;;;;;;24.10;12.20;;;;;;;4.86;89.27;101669.35;216742;1260;140612;-72
2024/01/29 10:33:30;;;;;;;21.60;11.60;;;;;;;5.03;88.56;101667.27;216752;1259;140006;-71
2024/01/29 10:38:41;;;;;;;24.20;13.90;;;;;;;5.17;88.26;101663.27;216260;1260;140287;-70
2024/01/29 10:43:48;;;;;;;23.40;13.40;;;;;;;5.35;88.08;101655.11;216251;1259;139859;-70
2024/01/29 10:48:53;;;;;;;20.90;10.50;;;;;;;5.50;87.86;101655.34;216362;1259;140117;-70
2024/01/29 10:53:59;;;;;;;21.00;13.30;;;;;;;5.64;87.55;101654.35;219333;1262;140489;-70
2024/01/29 10:59:05;;;;;;;21.30;12.10;;;;;;;5.79;86.63;101653.08;216952;1259;140260;-70
2024/01/29 11:04:16;;;;;;;16.30;9.90;;;;;;;5.93;86.48;101655.02;217272;1259;140421;-71
2024/01/29 11:09:24;;;;;;;18.40;10.00;;;;;;;6.11;86.43;101659.27;216688;1259;142457;-71
2024/01/29 11:14:28;;;;;;;21.50;12.20;;;;;;;6.31;86.22;101659.98;219547;1259;140463;-71
2024/01/29 11:19:34;;;;;;;21.20;12.60;;;;;;;6.41;84.82;101659.66;219595;1259;141960;-71
2024/01/29 11:24:41;;;;;;;15.90;11.40;;;;;;;6.45;84.33;101653.47;218602;1262;140215;-71
2024/01/29 11:29:47;;;;;;;19.50;10.80;;;;;;;6.52;83.73;101643.88;216345;1263;142811;-70
2024/01/29 11:34:56;;;;;;;21.90;12.00;;;;;;;6.58;83.35;101635.42;216384;1264;139922;-70
2024/01/29 11:40:02;;;;;;;15.90;11.00;;;;;;;6.66;83.58;101630.02;216435;1260;140108;-71
2024/01/29 11:45:08;;;;;;;21.40;13.70;;;;;;;6.69;83.02;101630.75;216285;1262;141027;-71
2024/01/29 11:50:13;;;;;;;23.00;13.30;;;;;;;6.75;82.78;101617.74;216987;1259;142302;-71
2024/01/29 11:55:20;;;;;;;21.60;11.30;;;;;;;6.78;81.99;101605.92;216418;1259;140583;-70
2024/01/29 12:00:24;;;;;;;17.30;9.00;;;;;;;6.83;81.82;101599.70;217530;1259;141004;-71
2024/01/29 12:05:29;;;;;;;16.90;8.80;;;;;;;6.90;81.76;101598.66;217133;1259;140218;-71
2024/01/29 12:10:33;;;;;;;18.60;10.20;;;;;;;6.97;81.48;101590.45;217346;1260;139879;-71
2024/01/29 12:15:39;;;;;;;19.30;11.80;;;;;;;6.97;80.78;101578.09;216463;1263;140706;-71
2024/01/29 12:20:47;;;;;;;18.90;10.90;;;;;;;6.96;80.49;101575.70;216543;1262;142403;-70
2024/01/29 12:25:56;;;;;;;16.70;10.80;;;;;;;6.92;79.93;101570.56;216465;1259;140097;-70
2024/01/29 12:31:06;;;;;;;13.20;9.70;;;;;;;6.92;80.64;101567.67;216311;1259;140946;-70
2024/01/29 12:36:14;;;;;;;19.80;11.50;;;;;;;7.02;80.26;101563.94;216593;1259;141090;-70
2024/01/29 12:41:18;;;;;;;18.20;10.20;;;;;;;7.08;80.07;101559.83;216706;1262;140400;-70
2024/01/29 12:46:22;;;;;;;14.50;10.10;;;;;;;7.15;79.62;101548.36;216488;1259;140788;-70
2024/01/29 12:51:28;;;;;;;18.50;10.20;;;;;;;7.16;79.03;101547.06;216294;1262;140258;-70
2024/01/29 12:56:32;;;;;;;19.60;8.80;;;;;;;7.14;78.94;101547.56;216346;1259;142259;-70
2024/01/29 13:01:36;;;;;;;20.10;9.70;;;;;;;7.14;78.70;101550.22;217547;1260;140932;-72
2024/01/29 13:06:41;;;;;;;17.70;10.70;;;;;;;7.13;78.52;101549.89;216952;1259;140019;-70
2024/01/29 13:11:45;;;;;;;18.10;9.90;;;;;;;7.15;78.17;101548.39;216530;1259;140858;-72
2024/01/29 13:16:49;;;;;;;13.60;9.40;;;;;;;7.19;78.34;101549.15;216382;1259;141225;-70
2024/01/29 13:21:55;;;;;;;15.40;9.20;;;;;;;7.20;78.11;101542.82;216788;1262;139750;-70
2024/01/29 13:26:59;;;;;;;19.40;9.80;;;;;;;7.19;77.63;101539.73;216464;1262;139877;-70
2024/01/29 13:32:03;;;;;;;14.90;9.70;;;;;;;7.16;77.80;101538.88;216387;1261;141601;-70
2024/01/29 13:37:07;;;;;;;12.60;8.80;;;;;;;7.11;77.62;101540.50;216259;1259;140449;-71
2024/01/29 13:42:10;;;;;;;18.40;11.60;;;;;;;7.09;77.33;101537.73;218173;1260;141593;-72
2024/01/29 13:47:14;;;;;;;18.70;11.60;;;;;;;7.02;77.43;101535.59;216370;1260;140959;-71
2024/01/29 13:52:18;;;;;;;21.20;10.60;;;;;;;7.02;77.45;101537.02;216712;1262;140703;-71
2024/01/29 13:57:22;;;;;;;20.00;9.40;;;;;;;6.99;76.90;101533.90;216385;1262;139872;-70
2024/01/29 14:02:27;;;;;;;18.10;10.30;;;;;;;6.92;77.17;101528.04;216484;1263;140509;-71
2024/01/29 14:07:32;;;;;;;20.40;9.10;;;;;;;6.88;76.96;101531.38;216614;1264;140809;-70
2024/01/29 14:12:37;;;;;;;16.90;11.10;;;;;;;6.84;77.24;101537.26;216482;1262;140849;-71
2024/01/29 14:17:42;;;;;;;15.60;10.10;;;;;;;6.82;77.23;101536.23;216428;1260;141006;-71
2024/01/29 14:22:46;;;;;;;14.10;8.60;;;;;;;6.75;76.88;101540.86;216506;1263;140981;-69
2024/01/29 14:27:52;;;;;;;18.40;10.50;;;;;;;6.65;77.15;101535.23;216405;1263;140599;-70
2024/01/29 14:32:56;;;;;;;15.30;9.20;;;;;;;6.55;76.67;101534.06;216492;1260;140344;-69
2024/01/29 14:38:00;;;;;;;15.60;8.70;;;;;;;6.38;76.76;101532.84;216363;1264;139955;-71
2024/01/29 14:43:07;;;;;;;22.30;11.90;;;;;;;6.29;76.96;101535.73;216594;1259;139772;-69
2024/01/29 14:48:12;;;;;;;19.00;11.60;;;;;;;6.23;77.15;101537.13;216614;1259;141014;-68
2024/01/29 14:53:16;;;;;;;19.20;11.40;;;;;;;6.11;77.04;101531.16;217345;1262;140884;-68
2024/01/29 14:58:20;;;;;;;20.60;11.80;;;;;;;5.96;77.06;101518.08;216590;1262;139988;-70
2024/01/29 15:03:25;;;;;;;25.90;12.60;;;;;;;5.84;77.62;101516.88;216590;1263;140723;-69
2024/01/29 15:08:29;;;;;;;21.90;11.20;;;;;;;5.74;77.91;101520.42;216730;1260;140381;-68
2024/01/29 15:13:33;;;;;;;22.90;11.30;;;;;;;5.61;77.71;101525.22;216522;1262;139917;-67
2024/01/29 15:18:37;;;;;;;20.10;13.00;;;;;;;5.49;77.61;101527.92;217239;1262;142111;-68
2024/01/29 15:23:42;;;;;;;22.90;12.00;;;;;;;5.37;77.79;101531.13;218300;1263;140297;-75
2024/01/29 15:28:46;;;;;;;20.40;11.00;;;;;;;5.23;77.92;101531.50;216866;1259;142147;-71
2024/01/29 15:33:50;;;;;;;22.00;11.30;;;;;;;5.05;78.11;101526.30;217002;1263;139725;-71
2024/01/29 15:38:55;;;;;;;23.40;13.00;;;;;;;4.90;78.01;101524.25;217493;1261;141333;-70
2024/01/29 15:43:59;;;;;;;24.40;12.70;;;;;;;4.79;78.16;101519.74;216553;1260;140346;-72
2024/01/29 15:49:03;;;;;;;21.50;14.00;;;;;;;4.68;78.54;101524.50;216779;1262;140290;-72
2024/01/29 15:54:07;;;;;;;19.50;10.40;;;;;;;4.59;78.51;101525.88;216984;1260;141345;-71
2024/01/29 15:59:13;;;;;;;21.50;12.50;;;;;;;4.51;78.74;101528.56;216925;1262;140325;-71
2024/01/29 16:04:17;;;;;;;26.10;13.10;;;;;;;4.44;78.34;101528.59;216832;1260;141952;-68
2024/01/29 16:09:22;;;;;;;23.80;14.90;;;;;;;4.35;78.54;101540.12;216653;1265;140662;-67
2024/01/29 16:14:30;;;;;;;23.60;13.80;;;;;;;4.29;78.77;101543.95;216522;1263;140271;-69
2024/01/29 16:19:38;;;;;;;15.70;10.10;;;;;;;4.21;78.71;101545.41;216523;1264;141235;-68
2024/01/29 16:24:43;;;;;;;27.70;15.90;;;;;;;4.13;78.95;101543.39;216750;1262;139980;-69
2024/01/29 16:29:48;;;;;;;27.50;15.30;;;;;;;4.04;79.09;101550.35;216621;1263;140574;-68
2024/01/29 16:34:53;;;;;;;22.80;12.70;;;;;;;4.01;79.39;101552.13;217411;1261;140691;-71
2024/01/29 16:39:58;;;;;;;24.80;14.50;;;;;;;3.93;79.13;101552.58;218502;1262;140584;-70
2024/01/29 16:45:04;;;;;;;24.50;12.70;;;;;;;3.84;79.10;101554.09;217656;1263;140818;-70
2024/01/29 16:50:09;;;;;;;24.90;14.90;;;;;;;3.74;79.18;101558.38;216589;1261;140217;-69
2024/01/29 16:55:15;;;;;;;29.00;14.80;;;;;;;3.68;79.35;101561.55;218776;1263;633094;-69
2024/01/29 17:00:20;;;;;;;28.30;12.60;;;;;;;3.65;79.52;101564.23;216516;1264;140735;-69
2024/01/29 17:05:25;;;;;;;23.80;14.60;;;;;;;3.56;79.32;101559.56;216546;1263;141887;-69
2024/01/29 17:10:31;;;;;;;31.20;14.50;;;;;;;3.50;79.60;101557.73;216603;1257;139588;-69
2024/01/29 17:15:37;;;;;;;28.60;15.00;;;;;;;3.43;79.59;101554.89;216515;1263;141236;-69
2024/01/29 17:20:41;;;;;;;25.20;14.40;;;;;;;3.37;79.68;101553.30;216299;1263;140329;-68
2024/01/29 17:25:45;;;;;;;33.30;14.10;;;;;;;3.30;79.85;101551.36;216307;1263;140637;-68
2024/01/29 17:30:49;;;;;;;23.90;15.20;;;;;;;3.22;80.02;101547.33;216352;1263;140349;-67
2024/01/29 17:35:55;;;;;;;31.80;15.30;;;;;;;3.16;80.20;101550.91;216437;1261;140845;-70
2024/01/29 17:41:00;;;;;;;32.10;16.50;;;;;;;3.12;80.41;101551.31;216603;1263;224581;-69
2024/01/29 17:46:15;;;;;;;32.20;17.20;;;;;;;3.08;80.40;101549.70;216659;1261;141068;-69
2024/01/29 17:51:19;;;;;;;29.70;18.40;;;;;;;3.05;80.58;101546.97;216857;1261;140058;-68
2024/01/29 17:56:23;;;;;;;27.30;16.10;;;;;;;3.02;80.55;101543.80;216738;1263;141750;-69
2024/01/29 18:01:28;;;;;;;34.00;16.60;;;;;;;2.97;80.70;101541.73;217047;1260;140998;-69
2024/01/29 18:06:33;;;;;;;29.40;17.10;;;;;;;2.94;80.76;101547.00;216486;1260;142606;-68
2024/01/29 18:11:38;;;;;;;24.90;16.20;;;;;;;2.89;80.64;101545.84;216901;1263;141325;-67
2024/01/29 18:16:43;;;;;;;33.20;17.20;;;;;;;2.82;80.86;101547.89;216466;1258;140431;-68
2024/01/29 18:21:46;;;;;;;34.00;17.20;;;;;;;2.78;80.75;101549.54;218493;1257;140869;-67
2024/01/29 18:26:50;;;;;;;35.00;16.30;;;;;;;2.72;80.86;101546.20;216450;1260;140975;-68
2024/01/29 18:31:54;;;;;;;27.90;16.50;;;;;;;2.67;80.88;101546.06;217010;1260;141147;-68
2024/01/29 18:36:59;;;;;;;37.20;19.10;;;;;;;2.62;80.90;101541.84;217660;1259;140154;-68
2024/01/29 18:42:04;;;;;;;32.40;16.90;;;;;;;2.57;80.86;101542.42;216316;1260;140828;-68
2024/01/29 18:47:08;;;;;;;35.00;17.80;;;;;;;2.53;81.07;101543.86;216372;1257;140301;-68
2024/01/29 18:52:12;;;;;;;37.80;17.40;;;;;;;2.50;81.30;101544.34;216853;1260;140183;-70
2024/01/29 18:57:17;;;;;;;32.30;17.40;;;;;;;2.47;81.30;101539.14;219317;1260;141311;-68
2024/01/29 19:02:22;;;;;;;26.10;16.40;;;;;;;2.47;81.18;101535.65;218996;1257;140729;-70
2024/01/29 19:07:25;;;;;;;38.50;17.80;;;;;;;2.48;81.27;101536.56;218888;1257;141337;-69
2024/01/29 19:12:35;;;;;;;37.30;18.90;;;;;;;2.50;81.28;101540.86;216346;1261;140275;-70
2024/01/29 19:17:39;;;;;;;30.30;18.70;;;;;;;2.47;80.99;101550.52;216931;1261;140408;-68
2024/01/29 19:22:44;;;;;;;30.40;15.80;;;;;;;2.44;81.01;101552.56;216945;1258;140310;-68
2024/01/29 19:27:48;;;;;;;24.40;16.20;;;;;;;2.39;81.30;101554.81;217536;1260;142147;-68
2024/01/29 19:32:52;;;;;;;34.10;16.10;;;;;;;2.34;81.00;101557.46;217710;1263;140442;-67
2024/01/29 19:37:56;;;;;;;38.30;19.30;;;;;;;2.30;81.18;101548.06;217021;1259;140149;-66
2024/01/29 19:43:00;;;;;;;32.40;15.60;;;;;;;2.26;81.19;101546.70;217574;1260;140174;-66
2024/01/29 19:48:04;;;;;;;28.90;16.20;;;;;;;2.21;81.31;101539.06;216607;1259;140065;-68
2024/01/29 19:53:08;;;;;;;33.00;17.30;;;;;;;2.17;81.05;101537.61;217691;1260;153186;-66
2024/01/29 19:58:12;;;;;;;31.00;16.00;;;;;;;2.13;81.24;101536.40;217107;1262;140508;-68
2024/01/29 20:03:17;;;;;;;36.60;18.70;;;;;;;2.10;81.28;101535.52;216450;1261;140325;-73
2024/01/29 20:08:22;;;;;;;28.30;14.30;;;;;;;2.06;81.27;101527.23;217320;1260;140166;-71
2024/01/29 20:13:27;;;;;;;29.20;15.10;;;;;;;2.00;81.44;101516.31;217271;1260;140714;-68
2024/01/29 20:18:38;;;;;;;33.00;17.10;;;;;;;1.95;80.94;101514.14;217184;1260;140513;-71
2024/01/29 20:23:44;;;;;;;30.90;15.80;;;;;;;1.91;81.09;101509.44;217805;1260;141750;-68
2024/01/29 20:28:49;;;;;;;33.20;17.80;;;;;;;1.89;81.17;101508.71;218336;1258;140333;-69
2024/01/29 20:33:54;;;;;;;25.80;14.80;;;;;;;1.90;81.21;101502.90;216749;1260;222628;-68
2024/01/29 20:38:58;;;;;;;34.00;15.60;;;;;;;1.88;81.13;101498.45;218740;1259;140811;-68
2024/01/29 20:44:02;;;;;;;29.70;16.60;;;;;;;1.88;81.19;101497.61;219657;1260;140441;-69
2024/01/29 20:49:09;;;;;;;28.10;16.60;;;;;;;1.89;81.00;101487.67;217231;1259;141713;-67
2024/01/29 20:54:14;;;;;;;34.90;18.40;;;;;;;1.89;81.16;101485.22;216625;1259;140010;-68
2024/01/29 20:59:19;;;;;;;30.40;15.80;;;;;;;1.88;81.00;101486.77;217775;1258;141258;-68
2024/01/29 21:04:26;;;;;;;28.00;13.20;;;;;;;1.85;80.97;101484.55;217299;1260;140212;-68
2024/01/29 21:09:32;;;;;;;37.10;16.60;;;;;;;1.81;81.06;101488.11;216830;1259;139931;-68
2024/01/29 21:14:36;;;;;;;38.40;19.60;;;;;;;1.76;81.04;101489.08;218676;1260;141100;-69
2024/01/29 21:19:40;;;;;;;25.50;13.40;;;;;;;1.73;81.17;101490.77;217987;1259;141718;-68
2024/01/29 21:24:44;;;;;;;25.40;13.80;;;;;;;1.69;81.19;101486.02;216912;1259;140193;-71
2024/01/29 21:29:50;;;;;;;27.70;14.80;;;;;;;1.65;81.19;101486.36;218134;1262;142001;-71
2024/01/29 21:34:55;;;;;;;31.20;14.00;;;;;;;1.61;81.14;101492.41;217196;1261;140727;-70
2024/01/29 21:40:01;;;;;;;29.00;15.30;;;;;;;1.59;81.13;101490.54;217167;1260;141834;-72
2024/01/29 21:45:07;;;;;;;24.50;12.30;;;;;;;1.57;81.47;101483.72;216893;1259;140038;-69
2024/01/29 21:50:11;;;;;;;18.60;11.00;;;;;;;1.53;81.24;101484.78;217440;1260;140685;-70
2024/01/29 21:55:15;;;;;;;22.40;12.70;;;;;;;1.49;81.07;101480.40;217348;1260;141078;-69
2024/01/29 22:00:19;;;;;;;24.30;13.30;;;;;;;1.46;81.35;101473.12;217998;1260;141276;-69
2024/01/29 22:05:24;;;;;;;21.30;13.80;;;;;;;1.44;81.47;101468.93;217266;1262;140210;-72
2024/01/29 22:10:28;;;;;;;25.60;12.70;;;;;;;1.42;81.27;101469.45;217475;1257;140809;-71
2024/01/29 22:15:32;;;;;;;15.80;9.10;;;;;;;1.42;81.39;101469.29;217129;1262;141177;-68
2024/01/29 22:20:36;;;;;;;22.40;12.10;;;;;;;1.41;81.59;101474.06;217930;1257;140274;-70
2024/01/29 22:25:40;;;;;;;24.30;13.90;;;;;;;1.40;81.52;101478.56;217927;1257;140167;-69
2024/01/29 22:30:45;;;;;;;23.00;12.70;;;;;;;1.39;81.21;101486.17;217053;1262;141013;-69
2024/01/29 22:35:50;;;;;;;25.00;13.40;;;;;;;1.39;81.30;101491.77;218017;1257;139958;-67
2024/01/29 22:40:55;;;;;;;23.10;10.20;;;;;;;1.37;81.14;101494.73;219069;1257;141014;-68
2024/01/29 22:46:03;;;;;;;24.90;12.60;;;;;;;1.35;81.17;101491.90;218872;1259;140347;-68